MV Sebastian D — WDH9021 — position and weather

sailwx.info

Track history (hours):
 
Tides and Currents Weather Stations Pressure Air Temp Water Temp Dewpoint Dewpoint Depression Visibility Wind Speed Wind Dir Waves Ship Positions

MV Sebastian D

Owner: Enterprise Marine Services, LLC, San Antonio, TX. More information available from US FCC via Universal Licensing System and Coast Guard Vessel Documentation Center.

Last reported at 2018-Jan-19 17:25 UTC. Time now 2018-Jan-20 03:38 UTC.
Position N 29°58' W 093°52'.

Length 25 m; draft 3 m.

Type: Towing. MMSI: 367663890.

Date/timePositionNaut miles runAvg speedWind from/ knotsBaromVisibWave heightAir tempDewpointWater temp
2018-Jan-19 17:25N 29°58' W 093°52'0 0.0
2018-Jan-19 16:59N 29°58' W 093°52'0 0.0
2018-Jan-19 15:42N 29°58' W 093°52'0 0.0
2018-Jan-19 15:15N 29°58' W 093°52'0 0.0
2018-Jan-19 15:00N 29°58' W 093°52'0 0.0
2018-Jan-19 14:24N 29°58' W 093°52'0 0.0
2018-Jan-19 14:00N 29°58' W 093°52'0 0.0
2018-Jan-19 13:30N 29°58' W 093°52'0 0.0
2018-Jan-19 13:00N 29°58' W 093°52'0 0.0
2018-Jan-19 12:30N 29°58' W 093°52'0 0.0
2018-Jan-19 11:57N 29°58' W 093°52'0 0.0
2018-Jan-19 11:30N 29°58' W 093°52'0 0.0
2018-Jan-19 09:47N 29°58' W 093°52'0 0.0
2018-Jan-19 09:29N 29°58' W 093°52'0 0.0
2018-Jan-19 06:48N 29°58' W 093°52'0 0.0
2018-Jan-19 05:57N 29°58' W 093°52'  
2018-Jan-10 23:11N 29°33' W 090°24'1 5.5
2018-Jan-10 23:00N 29°33' W 090°25'3 6.3
2018-Jan-10 22:30N 29°34' W 090°28'3 6.3
2018-Jan-10 22:00N 29°34' W 090°32'3 6.0
2018-Jan-10 21:30N 29°35' W 090°35'3 5.8
2018-Jan-10 21:00N 29°35' W 090°39'3 5.7
2018-Jan-10 20:30N 29°37' W 090°41'2 4.2
2018-Jan-10 20:00N 29°35' W 090°43'1 2.9
2018-Jan-10 19:30N 29°34' W 090°43'0 0.3
2018-Jan-10 19:00N 29°34' W 090°43'0 0.0
2018-Jan-10 18:30N 29°34' W 090°43'0 0.0
2018-Jan-10 18:00N 29°34' W 090°43'0 0.0
2018-Jan-10 17:30N 29°34' W 090°43'0 0.0
2018-Jan-10 17:00N 29°34' W 090°43'0 0.0
2018-Jan-10 16:30N 29°34' W 090°43'0 0.3
2018-Jan-10 16:00N 29°34' W 090°43'0 0.4
2018-Jan-10 15:30N 29°33' W 090°43'0 0.6
2018-Jan-10 15:00N 29°34' W 090°43'0 0.0
2018-Jan-10 14:30N 29°34' W 090°43'0 0.0
2018-Jan-10 14:00N 29°34' W 090°43'0 0.2
2018-Jan-10 13:30N 29°34' W 090°43'0 0.3
2018-Jan-10 13:00N 29°34' W 090°43'0 0.0
2018-Jan-10 12:30N 29°34' W 090°43'0 0.0
2018-Jan-10 12:00N 29°34' W 090°43'0 0.0
2018-Jan-10 11:30N 29°34' W 090°43'0 0.0
2018-Jan-10 11:00N 29°34' W 090°43'0 0.0
2018-Jan-10 10:30N 29°34' W 090°43'0 0.0
2018-Jan-10 10:00N 29°34' W 090°43'0 0.0
2018-Jan-10 09:30N 29°34' W 090°43'0 0.0
2018-Jan-10 09:00N 29°34' W 090°43'0 0.0
2018-Jan-10 08:30N 29°34' W 090°43'0 0.0
2018-Jan-10 08:00N 29°34' W 090°43'0 0.0
2018-Jan-10 07:30N 29°34' W 090°43'0 0.0
2018-Jan-10 07:00N 29°34' W 090°43'0 0.0
2018-Jan-10 06:30N 29°34' W 090°43'0 0.0
2018-Jan-10 06:00N 29°34' W 090°43'0 0.0
2018-Jan-10 05:30N 29°34' W 090°43'0 0.0
2018-Jan-10 05:00N 29°34' W 090°43'1 1.2
2018-Jan-10 04:31N 29°34' W 090°43'3 5.6
2018-Jan-10 04:00N 29°32' W 090°46'3 6.4
2018-Jan-10 03:30N 29°32' W 090°49'4 6.4
2018-Jan-10 02:56N 29°33' W 090°54'4 6.6
2018-Jan-10 02:22N 29°35' W 090°57'  
Track history (hours):
 
Tides and Currents Weather Stations Pressure Air Temp Water Temp Dewpoint Dewpoint Depression Visibility Wind Speed Wind Dir Waves Ship Positions

MV Sebastian D

Owner: Enterprise Marine Services, LLC, San Antonio, TX. More information available from US FCC via Universal Licensing System and Coast Guard Vessel Documentation Center.

Last reported at 2018-Jan-19 17:25 UTC. Time now 2018-Jan-20 03:38 UTC.
Position N 29°58' W 093°52'.

Length 25 m; draft 3 m.

Type: Towing. MMSI: 367663890.

Date/timePositionNaut miles runAvg speedWind from/ knotsBaromVisibWave heightAir tempDewpointWater temp
2018-Jan-19 17:25N 29°58' W 093°52'0 0.0
2018-Jan-19 16:59N 29°58' W 093°52'0 0.0
2018-Jan-19 15:42N 29°58' W 093°52'0 0.0
2018-Jan-19 15:15N 29°58' W 093°52'0 0.0
2018-Jan-19 15:00N 29°58' W 093°52'0 0.0
2018-Jan-19 14:24N 29°58' W 093°52'0 0.0
2018-Jan-19 14:00N 29°58' W 093°52'0 0.0
2018-Jan-19 13:30N 29°58' W 093°52'0 0.0
2018-Jan-19 13:00N 29°58' W 093°52'0 0.0
2018-Jan-19 12:30N 29°58' W 093°52'0 0.0
2018-Jan-19 11:57N 29°58' W 093°52'0 0.0
2018-Jan-19 11:30N 29°58' W 093°52'0 0.0
2018-Jan-19 09:47N 29°58' W 093°52'0 0.0
2018-Jan-19 09:29N 29°58' W 093°52'0 0.0
2018-Jan-19 06:48N 29°58' W 093°52'0 0.0
2018-Jan-19 05:57N 29°58' W 093°52'  
2018-Jan-10 23:11N 29°33' W 090°24'1 5.5
2018-Jan-10 23:00N 29°33' W 090°25'3 6.3
2018-Jan-10 22:30N 29°34' W 090°28'3 6.3
2018-Jan-10 22:00N 29°34' W 090°32'3 6.0
2018-Jan-10 21:30N 29°35' W 090°35'3 5.8
2018-Jan-10 21:00N 29°35' W 090°39'3 5.7
2018-Jan-10 20:30N 29°37' W 090°41'2 4.2
2018-Jan-10 20:00N 29°35' W 090°43'1 2.9
2018-Jan-10 19:30N 29°34' W 090°43'0 0.3
2018-Jan-10 19:00N 29°34' W 090°43'0 0.0
2018-Jan-10 18:30N 29°34' W 090°43'0 0.0
2018-Jan-10 18:00N 29°34' W 090°43'0 0.0
2018-Jan-10 17:30N 29°34' W 090°43'0 0.0
2018-Jan-10 17:00N 29°34' W 090°43'0 0.0
2018-Jan-10 16:30N 29°34' W 090°43'0 0.3
2018-Jan-10 16:00N 29°34' W 090°43'0 0.4
2018-Jan-10 15:30N 29°33' W 090°43'0 0.6
2018-Jan-10 15:00N 29°34' W 090°43'0 0.0
2018-Jan-10 14:30N 29°34' W 090°43'0 0.0
2018-Jan-10 14:00N 29°34' W 090°43'0 0.2
2018-Jan-10 13:30N 29°34' W 090°43'0 0.3
2018-Jan-10 13:00N 29°34' W 090°43'0 0.0
2018-Jan-10 12:30N 29°34' W 090°43'0 0.0
2018-Jan-10 12:00N 29°34' W 090°43'0 0.0
2018-Jan-10 11:30N 29°34' W 090°43'0 0.0
2018-Jan-10 11:00N 29°34' W 090°43'0 0.0
2018-Jan-10 10:30N 29°34' W 090°43'0 0.0
2018-Jan-10 10:00N 29°34' W 090°43'0 0.0
2018-Jan-10 09:30N 29°34' W 090°43'0 0.0
2018-Jan-10 09:00N 29°34' W 090°43'0 0.0
2018-Jan-10 08:30N 29°34' W 090°43'0 0.0
2018-Jan-10 08:00N 29°34' W 090°43'0 0.0
2018-Jan-10 07:30N 29°34' W 090°43'0 0.0
2018-Jan-10 07:00N 29°34' W 090°43'0 0.0
2018-Jan-10 06:30N 29°34' W 090°43'0 0.0
2018-Jan-10 06:00N 29°34' W 090°43'0 0.0
2018-Jan-10 05:30N 29°34' W 090°43'0 0.0
2018-Jan-10 05:00N 29°34' W 090°43'1 1.2
2018-Jan-10 04:31N 29°34' W 090°43'3 5.6
2018-Jan-10 04:00N 29°32' W 090°46'3 6.4
2018-Jan-10 03:30N 29°32' W 090°49'4 6.4
2018-Jan-10 02:56N 29°33' W 090°54'4 6.6
2018-Jan-10 02:22N 29°35' W 090°57'  

Dump ship's entire track history